Millwood, KY (42762)

5:45 PM CDT on September 26, 2016 (GMT -0500)
Peth (Bratcher Farms) | | Change Station

Elev 554 ft 37.40 °N, 86.46 °W | Updated 2 minutes ago

Scattered Clouds
Scattered Clouds
69.6 °F
Feels Like 69.6 °F
N
1.7
Wind Variable Wind from SSW

Today
High -- | Low -- °F
--% Chance of Precip.
Yesterday
High -- | Low -- °F
Precip. -- in
Pressure 30.06 in
Visibility 10.0 miles
Clouds Scattered Clouds 2600 ft
Dew Point 58 °F
Humidity 67%
Rainfall 0.08 in
Snow Depth Not available.
6:37 AM 6:35 PM
Waning Crescent, 16% visible
METAR KBWG 262153Z AUTO 33005KT 10SM SCT026 20/13 A3007 RMK AO2 SLP179 T02000133
Pressure 30.06 in
Visibility 10.0 miles
Clouds Scattered Clouds 2600 ft
Dew Point 58 °F
Humidity 67%
Rainfall 0.08 in
Snow Depth Not available.
6:37 AM 6:35 PM
Waning Crescent, 16% visible
METAR KBWG 262153Z AUTO 33005KT 10SM SCT026 20/13 A3007 RMK AO2 SLP179 T02000133

10-Day Weather Forecast

Almanac

Astronomy

Sep. 26, 2016 Rise Set
Actual Time
Civil Twilight
Nautical Twilight
Astronomical Twilight
Moon
Length of Visible Light
Length of Day
Tomorrow will be .
, % of the Moon is Illuminated

Today's Extremes

State Highs State Lows

Community

WunderPhotos

Upload Photos

1,941,981 photos uploaded!

WunderBlog® & News

Nearby

Air Quality

  Air Quality AQ Index Pollutant
Not available.

Snow Depth

Station Depth Elevation

Earthquake Activity

City Distance Mag. Time & Date
Minimum magnitude displayed is 2.5.

Coastal Water Temperatures

Place Temperature

Stations

Nearby Weather Stations

Station Location Temp. Windchill Dew Point Humidity Wind Precip. Elev Updated Type
                   

Watches & Warnings

There are currently no watches in effect.